sensor_id;sensor_type;location;lat;lon;timestamp;P1;durP1;ratioP1;P2;durP2;ratioP2
74059;SDS011;62414;53.436;8.828;2023-11-21T00:00:21;39.23;;;7.43;;
74059;SDS011;62414;53.436;8.828;2023-11-21T00:02:47;42.65;;;7.72;;
74059;SDS011;62414;53.436;8.828;2023-11-21T00:05:13;38.67;;;7.30;;
74059;SDS011;62414;53.436;8.828;2023-11-21T00:07:39;36.80;;;7.78;;
74059;SDS011;62414;53.436;8.828;2023-11-21T00:10:05;37.63;;;7.50;;
74059;SDS011;62414;53.436;8.828;2023-11-21T00:12:31;36.17;;;7.18;;
74059;SDS011;62414;53.436;8.828;2023-11-21T00:14:57;34.43;;;7.17;;
74059;SDS011;62414;53.436;8.828;2023-11-21T00:17:23;39.30;;;7.85;;
74059;SDS011;62414;53.436;8.828;2023-11-21T00:19:48;38.53;;;7.47;;
74059;SDS011;62414;53.436;8.828;2023-11-21T00:22:14;38.05;;;7.72;;
74059;SDS011;62414;53.436;8.828;2023-11-21T00:24:39;42.33;;;7.97;;
74059;SDS011;62414;53.436;8.828;2023-11-21T00:27:05;43.47;;;8.20;;
74059;SDS011;62414;53.436;8.828;2023-11-21T00:29:30;48.30;;;8.77;;
74059;SDS011;62414;53.436;8.828;2023-11-21T00:31:57;58.90;;;9.90;;
74059;SDS011;62414;53.436;8.828;2023-11-21T00:34:23;74.47;;;11.97;;
74059;SDS011;62414;53.436;8.828;2023-11-21T00:36:48;76.00;;;11.73;;
74059;SDS011;62414;53.436;8.828;2023-11-21T00:39:13;72.90;;;10.70;;
74059;SDS011;62414;53.436;8.828;2023-11-21T00:41:39;80.97;;;11.90;;
74059;SDS011;62414;53.436;8.828;2023-11-21T00:44:04;73.07;;;10.67;;
74059;SDS011;62414;53.436;8.828;2023-11-21T00:46:30;74.33;;;10.23;;
74059;SDS011;62414;53.436;8.828;2023-11-21T00:48:57;66.47;;;10.48;;
74059;SDS011;62414;53.436;8.828;2023-11-21T00:51:22;78.57;;;10.93;;
74059;SDS011;62414;53.436;8.828;2023-11-21T00:53:48;83.25;;;10.93;;
74059;SDS011;62414;53.436;8.828;2023-11-21T00:56:13;69.67;;;9.83;;
74059;SDS011;62414;53.436;8.828;2023-11-21T00:58:39;63.30;;;10.20;;
74059;SDS011;62414;53.436;8.828;2023-11-21T01:01:05;64.03;;;9.93;;
74059;SDS011;62414;53.436;8.828;2023-11-21T01:03:31;61.87;;;9.27;;
74059;SDS011;62414;53.436;8.828;2023-11-21T01:05:57;72.93;;;9.63;;
74059;SDS011;62414;53.436;8.828;2023-11-21T01:08:23;58.77;;;8.73;;
74059;SDS011;62414;53.436;8.828;2023-11-21T01:10:48;58.05;;;9.48;;
74059;SDS011;62414;53.436;8.828;2023-11-21T01:13:14;54.27;;;9.03;;
74059;SDS011;62414;53.436;8.828;2023-11-21T01:15:39;63.83;;;9.90;;
74059;SDS011;62414;53.436;8.828;2023-11-21T01:18:05;64.50;;;10.95;;
74059;SDS011;62414;53.436;8.828;2023-11-21T01:20:30;67.53;;;10.97;;
74059;SDS011;62414;53.436;8.828;2023-11-21T01:22:57;72.57;;;10.57;;
74059;SDS011;62414;53.436;8.828;2023-11-21T01:25:22;71.93;;;11.05;;
74059;SDS011;62414;53.436;8.828;2023-11-21T01:27:48;74.88;;;11.15;;
74059;SDS011;62414;53.436;8.828;2023-11-21T01:30:14;76.80;;;11.53;;
74059;SDS011;62414;53.436;8.828;2023-11-21T01:32:39;72.03;;;11.50;;
74059;SDS011;62414;53.436;8.828;2023-11-21T01:35:05;66.97;;;10.93;;
74059;SDS011;62414;53.436;8.828;2023-11-21T01:37:30;69.83;;;11.43;;
74059;SDS011;62414;53.436;8.828;2023-11-21T01:39:58;68.22;;;11.30;;
74059;SDS011;62414;53.436;8.828;2023-11-21T01:42:23;70.45;;;11.98;;
74059;SDS011;62414;53.436;8.828;2023-11-21T01:44:49;78.07;;;12.03;;
74059;SDS011;62414;53.436;8.828;2023-11-21T01:47:14;84.40;;;12.90;;
74059;SDS011;62414;53.436;8.828;2023-11-21T01:49:40;81.07;;;12.47;;
74059;SDS011;62414;53.436;8.828;2023-11-21T01:52:05;90.95;;;13.02;;
74059;SDS011;62414;53.436;8.828;2023-11-21T01:54:31;74.03;;;12.63;;
74059;SDS011;62414;53.436;8.828;2023-11-21T01:56:58;92.63;;;15.13;;
74059;SDS011;62414;53.436;8.828;2023-11-21T01:59:24;85.15;;;13.98;;
74059;SDS011;62414;53.436;8.828;2023-11-21T02:01:51;79.72;;;13.45;;
74059;SDS011;62414;53.436;8.828;2023-11-21T02:04:16;72.90;;;13.73;;
74059;SDS011;62414;53.436;8.828;2023-11-21T02:06:43;80.40;;;14.27;;
74059;SDS011;62414;53.436;8.828;2023-11-21T02:09:08;80.93;;;13.33;;
74059;SDS011;62414;53.436;8.828;2023-11-21T02:11:33;87.30;;;15.10;;
74059;SDS011;62414;53.436;8.828;2023-11-21T02:14:02;82.57;;;14.32;;
74059;SDS011;62414;53.436;8.828;2023-11-21T02:16:27;81.00;;;15.68;;
74059;SDS011;62414;53.436;8.828;2023-11-21T02:18:53;74.90;;;13.83;;
74059;SDS011;62414;53.436;8.828;2023-11-21T02:21:18;85.47;;;15.50;;
74059;SDS011;62414;53.436;8.828;2023-11-21T02:23:45;81.63;;;14.33;;
74059;SDS011;62414;53.436;8.828;2023-11-21T02:26:11;77.95;;;14.57;;
74059;SDS011;62414;53.436;8.828;2023-11-21T02:28:37;82.32;;;14.88;;
74059;SDS011;62414;53.436;8.828;2023-11-21T02:31:03;80.23;;;15.73;;
74059;SDS011;62414;53.436;8.828;2023-11-21T02:33:29;76.23;;;15.37;;
74059;SDS011;62414;53.436;8.828;2023-11-21T02:35:54;84.93;;;15.52;;
74059;SDS011;62414;53.436;8.828;2023-11-21T02:38:20;79.27;;;14.37;;
74059;SDS011;62414;53.436;8.828;2023-11-21T02:40:46;85.32;;;15.13;;
74059;SDS011;62414;53.436;8.828;2023-11-21T02:43:12;70.57;;;15.07;;
74059;SDS011;62414;53.436;8.828;2023-11-21T02:45:38;76.13;;;16.27;;
74059;SDS011;62414;53.436;8.828;2023-11-21T02:48:04;81.60;;;15.20;;
74059;SDS011;62414;53.436;8.828;2023-11-21T02:50:30;81.75;;;16.73;;
74059;SDS011;62414;53.436;8.828;2023-11-21T02:52:55;76.73;;;16.30;;
74059;SDS011;62414;53.436;8.828;2023-11-21T02:55:21;74.97;;;15.40;;
74059;SDS011;62414;53.436;8.828;2023-11-21T02:57:48;67.03;;;13.60;;
74059;SDS011;62414;53.436;8.828;2023-11-21T03:00:13;72.38;;;14.88;;
74059;SDS011;62414;53.436;8.828;2023-11-21T03:02:39;65.20;;;13.60;;
74059;SDS011;62414;53.436;8.828;2023-11-21T03:05:05;64.03;;;13.95;;
74059;SDS011;62414;53.436;8.828;2023-11-21T03:07:31;54.45;;;12.63;;
74059;SDS011;62414;53.436;8.828;2023-11-21T03:09:57;52.57;;;13.07;;
74059;SDS011;62414;53.436;8.828;2023-11-21T03:12:22;50.50;;;12.82;;
74059;SDS011;62414;53.436;8.828;2023-11-21T03:14:49;50.80;;;12.17;;
74059;SDS011;62414;53.436;8.828;2023-11-21T03:17:14;50.13;;;12.02;;
74059;SDS011;62414;53.436;8.828;2023-11-21T03:19:41;52.10;;;12.27;;
74059;SDS011;62414;53.436;8.828;2023-11-21T03:22:07;48.70;;;10.98;;
74059;SDS011;62414;53.436;8.828;2023-11-21T03:24:33;41.97;;;10.33;;
74059;SDS011;62414;53.436;8.828;2023-11-21T03:26:58;39.37;;;10.57;;
74059;SDS011;62414;53.436;8.828;2023-11-21T03:29:24;44.30;;;10.17;;
74059;SDS011;62414;53.436;8.828;2023-11-21T03:31:51;48.10;;;10.60;;
74059;SDS011;62414;53.436;8.828;2023-11-21T03:34:22;44.67;;;11.63;;
74059;SDS011;62414;53.436;8.828;2023-11-21T03:36:48;41.47;;;10.27;;
74059;SDS011;62414;53.436;8.828;2023-11-21T03:39:14;42.03;;;10.23;;
74059;SDS011;62414;53.436;8.828;2023-11-21T03:41:39;44.60;;;10.80;;
74059;SDS011;62414;53.436;8.828;2023-11-21T03:44:05;39.93;;;9.93;;
74059;SDS011;62414;53.436;8.828;2023-11-21T03:46:30;43.27;;;9.83;;
74059;SDS011;62414;53.436;8.828;2023-11-21T03:48:57;41.00;;;9.63;;
74059;SDS011;62414;53.436;8.828;2023-11-21T03:51:22;43.50;;;10.95;;
74059;SDS011;62414;53.436;8.828;2023-11-21T03:53:48;40.90;;;11.07;;
74059;SDS011;62414;53.436;8.828;2023-11-21T03:56:13;44.10;;;10.63;;
74059;SDS011;62414;53.436;8.828;2023-11-21T03:58:39;47.05;;;10.75;;
74059;SDS011;62414;53.436;8.828;2023-11-21T04:01:04;53.97;;;12.07;;
74059;SDS011;62414;53.436;8.828;2023-11-21T04:03:30;55.15;;;13.23;;
74059;SDS011;62414;53.436;8.828;2023-11-21T04:05:57;63.77;;;12.77;;
74059;SDS011;62414;53.436;8.828;2023-11-21T04:08:22;60.08;;;12.48;;
74059;SDS011;62414;53.436;8.828;2023-11-21T04:10:48;63.57;;;12.93;;
74059;SDS011;62414;53.436;8.828;2023-11-21T04:13:13;58.27;;;12.47;;
74059;SDS011;62414;53.436;8.828;2023-11-21T04:15:39;49.67;;;12.35;;
74059;SDS011;62414;53.436;8.828;2023-11-21T04:18:04;53.80;;;11.77;;
74059;SDS011;62414;53.436;8.828;2023-11-21T04:20:30;43.53;;;10.80;;
74059;SDS011;62414;53.436;8.828;2023-11-21T04:22:56;41.30;;;10.23;;
74059;SDS011;62414;53.436;8.828;2023-11-21T04:25:22;37.33;;;9.90;;
74059;SDS011;62414;53.436;8.828;2023-11-21T04:27:48;37.75;;;10.25;;
74059;SDS011;62414;53.436;8.828;2023-11-21T04:30:13;41.83;;;9.13;;
74059;SDS011;62414;53.436;8.828;2023-11-21T04:32:39;44.55;;;10.38;;
74059;SDS011;62414;53.436;8.828;2023-11-21T04:35:05;43.13;;;10.13;;
74059;SDS011;62414;53.436;8.828;2023-11-21T04:37:31;45.70;;;10.15;;
74059;SDS011;62414;53.436;8.828;2023-11-21T04:39:58;42.33;;;10.27;;
74059;SDS011;62414;53.436;8.828;2023-11-21T04:42:23;38.17;;;9.98;;
74059;SDS011;62414;53.436;8.828;2023-11-21T04:44:49;42.50;;;10.37;;
74059;SDS011;62414;53.436;8.828;2023-11-21T04:47:14;40.47;;;9.53;;
74059;SDS011;62414;53.436;8.828;2023-11-21T04:49:41;40.47;;;10.03;;
74059;SDS011;62414;53.436;8.828;2023-11-21T04:52:07;37.83;;;10.17;;
74059;SDS011;62414;53.436;8.828;2023-11-21T04:54:32;35.17;;;9.60;;
74059;SDS011;62414;53.436;8.828;2023-11-21T04:56:59;36.77;;;9.03;;
74059;SDS011;62414;53.436;8.828;2023-11-21T04:59:24;35.88;;;8.63;;
74059;SDS011;62414;53.436;8.828;2023-11-21T05:01:50;33.50;;;8.80;;
74059;SDS011;62414;53.436;8.828;2023-11-21T05:04:15;33.00;;;9.27;;
74059;SDS011;62414;53.436;8.828;2023-11-21T05:06:41;35.43;;;9.17;;
74059;SDS011;62414;53.436;8.828;2023-11-21T05:09:06;30.52;;;9.30;;
74059;SDS011;62414;53.436;8.828;2023-11-21T05:11:31;31.17;;;8.60;;
74059;SDS011;62414;53.436;8.828;2023-11-21T05:13:58;33.50;;;8.93;;
74059;SDS011;62414;53.436;8.828;2023-11-21T05:16:25;32.00;;;9.15;;
74059;SDS011;62414;53.436;8.828;2023-11-21T05:18:51;33.55;;;8.60;;
74059;SDS011;62414;53.436;8.828;2023-11-21T05:21:16;27.87;;;8.87;;
74059;SDS011;62414;53.436;8.828;2023-11-21T05:23:42;26.73;;;8.23;;
74059;SDS011;62414;53.436;8.828;2023-11-21T05:26:07;28.73;;;8.52;;
74059;SDS011;62414;53.436;8.828;2023-11-21T05:28:32;26.33;;;7.90;;
74059;SDS011;62414;53.436;8.828;2023-11-21T05:30:59;27.77;;;7.67;;
74059;SDS011;62414;53.436;8.828;2023-11-21T05:33:25;28.33;;;8.10;;
74059;SDS011;62414;53.436;8.828;2023-11-21T05:35:50;25.80;;;7.77;;
74059;SDS011;62414;53.436;8.828;2023-11-21T05:38:15;23.57;;;7.53;;
74059;SDS011;62414;53.436;8.828;2023-11-21T05:40:41;24.50;;;7.03;;
74059;SDS011;62414;53.436;8.828;2023-11-21T05:43:06;22.97;;;6.63;;
74059;SDS011;62414;53.436;8.828;2023-11-21T05:45:32;21.50;;;6.13;;
74059;SDS011;62414;53.436;8.828;2023-11-21T05:47:59;24.27;;;6.43;;
74059;SDS011;62414;53.436;8.828;2023-11-21T05:50:24;25.80;;;6.55;;
74059;SDS011;62414;53.436;8.828;2023-11-21T05:52:50;23.97;;;6.90;;
74059;SDS011;62414;53.436;8.828;2023-11-21T05:55:15;22.87;;;6.40;;
74059;SDS011;62414;53.436;8.828;2023-11-21T05:57:41;21.75;;;6.13;;
74059;SDS011;62414;53.436;8.828;2023-11-21T06:00:08;23.38;;;7.55;;
74059;SDS011;62414;53.436;8.828;2023-11-21T06:02:35;26.63;;;6.90;;
74059;SDS011;62414;53.436;8.828;2023-11-21T06:05:01;24.25;;;7.18;;
74059;SDS011;62414;53.436;8.828;2023-11-21T06:07:27;25.37;;;7.40;;
74059;SDS011;62414;53.436;8.828;2023-11-21T06:09:52;24.80;;;6.78;;
74059;SDS011;62414;53.436;8.828;2023-11-21T06:12:18;21.70;;;7.20;;
74059;SDS011;62414;53.436;8.828;2023-11-21T06:14:43;23.47;;;7.17;;
74059;SDS011;62414;53.436;8.828;2023-11-21T06:17:09;24.63;;;7.35;;
74059;SDS011;62414;53.436;8.828;2023-11-21T06:19:34;27.57;;;7.40;;
74059;SDS011;62414;53.436;8.828;2023-11-21T06:22:01;28.87;;;8.20;;
74059;SDS011;62414;53.436;8.828;2023-11-21T06:24:26;25.38;;;7.80;;
74059;SDS011;62414;53.436;8.828;2023-11-21T06:26:52;24.30;;;7.10;;
74059;SDS011;62414;53.436;8.828;2023-11-21T06:29:17;24.53;;;7.50;;
74059;SDS011;62414;53.436;8.828;2023-11-21T06:31:43;24.75;;;7.13;;
74059;SDS011;62414;53.436;8.828;2023-11-21T06:34:08;26.00;;;7.67;;
74059;SDS011;62414;53.436;8.828;2023-11-21T06:36:33;25.43;;;7.47;;
74059;SDS011;62414;53.436;8.828;2023-11-21T06:39:00;26.83;;;6.77;;
74059;SDS011;62414;53.436;8.828;2023-11-21T06:41:26;25.10;;;7.30;;
74059;SDS011;62414;53.436;8.828;2023-11-21T06:43:51;23.03;;;6.87;;
74059;SDS011;62414;53.436;8.828;2023-11-21T06:46:16;21.17;;;5.97;;
74059;SDS011;62414;53.436;8.828;2023-11-21T06:48:42;20.57;;;6.43;;
74059;SDS011;62414;53.436;8.828;2023-11-21T06:51:07;18.08;;;5.60;;
74059;SDS011;62414;53.436;8.828;2023-11-21T06:53:33;20.67;;;6.33;;
74059;SDS011;62414;53.436;8.828;2023-11-21T06:56:00;22.53;;;7.10;;
74059;SDS011;62414;53.436;8.828;2023-11-21T06:58:25;24.45;;;6.90;;
74059;SDS011;62414;53.436;8.828;2023-11-21T07:00:51;21.90;;;6.87;;
74059;SDS011;62414;53.436;8.828;2023-11-21T07:03:16;22.55;;;6.72;;
74059;SDS011;62414;53.436;8.828;2023-11-21T07:05:42;25.40;;;7.20;;
74059;SDS011;62414;53.436;8.828;2023-11-21T07:08:07;25.20;;;6.90;;
74059;SDS011;62414;53.436;8.828;2023-11-21T07:10:32;23.73;;;7.10;;
74059;SDS011;62414;53.436;8.828;2023-11-21T07:12:59;21.17;;;6.30;;
74059;SDS011;62414;53.436;8.828;2023-11-21T07:15:25;23.47;;;6.93;;
74059;SDS011;62414;53.436;8.828;2023-11-21T07:17:50;21.73;;;6.65;;
74059;SDS011;62414;53.436;8.828;2023-11-21T07:20:16;22.20;;;6.87;;
74059;SDS011;62414;53.436;8.828;2023-11-21T07:22:41;23.67;;;7.37;;
74059;SDS011;62414;53.436;8.828;2023-11-21T07:25:07;22.27;;;6.90;;
74059;SDS011;62414;53.436;8.828;2023-11-21T07:27:33;21.17;;;6.83;;
74059;SDS011;62414;53.436;8.828;2023-11-21T07:29:59;19.45;;;6.15;;
74059;SDS011;62414;53.436;8.828;2023-11-21T07:32:25;19.83;;;6.17;;
74059;SDS011;62414;53.436;8.828;2023-11-21T07:34:50;21.92;;;7.50;;
74059;SDS011;62414;53.436;8.828;2023-11-21T07:37:16;19.60;;;6.73;;
74059;SDS011;62414;53.436;8.828;2023-11-21T07:39:41;19.33;;;6.30;;
74059;SDS011;62414;53.436;8.828;2023-11-21T07:42:07;21.77;;;7.03;;
74059;SDS011;62414;53.436;8.828;2023-11-21T07:44:32;20.90;;;6.83;;
74059;SDS011;62414;53.436;8.828;2023-11-21T07:46:59;21.30;;;6.87;;
74059;SDS011;62414;53.436;8.828;2023-11-21T07:49:24;21.92;;;6.30;;
74059;SDS011;62414;53.436;8.828;2023-11-21T07:51:50;17.05;;;5.88;;
74059;SDS011;62414;53.436;8.828;2023-11-21T07:54:15;22.17;;;6.97;;
74059;SDS011;62414;53.436;8.828;2023-11-21T07:56:41;22.23;;;7.00;;
74059;SDS011;62414;53.436;8.828;2023-11-21T07:59:06;19.83;;;5.90;;
74059;SDS011;62414;53.436;8.828;2023-11-21T08:01:32;20.90;;;6.57;;
74059;SDS011;62414;53.436;8.828;2023-11-21T08:03:58;23.03;;;7.00;;
74059;SDS011;62414;53.436;8.828;2023-11-21T08:06:24;22.95;;;6.90;;
74059;SDS011;62414;53.436;8.828;2023-11-21T08:08:49;22.80;;;7.43;;
74059;SDS011;62414;53.436;8.828;2023-11-21T08:11:15;20.00;;;7.03;;
74059;SDS011;62414;53.436;8.828;2023-11-21T08:13:40;22.60;;;6.80;;
74059;SDS011;62414;53.436;8.828;2023-11-21T08:16:06;22.27;;;7.00;;
74059;SDS011;62414;53.436;8.828;2023-11-21T08:18:32;22.02;;;7.07;;
74059;SDS011;62414;53.436;8.828;2023-11-21T08:20:59;22.63;;;7.30;;
74059;SDS011;62414;53.436;8.828;2023-11-21T08:23:25;19.25;;;6.43;;
74059;SDS011;62414;53.436;8.828;2023-11-21T08:25:50;19.77;;;6.83;;
74059;SDS011;62414;53.436;8.828;2023-11-21T08:28:16;21.35;;;7.20;;
74059;SDS011;62414;53.436;8.828;2023-11-21T08:30:41;19.83;;;6.17;;
74059;SDS011;62414;53.436;8.828;2023-11-21T08:33:07;18.73;;;7.00;;
74059;SDS011;62414;53.436;8.828;2023-11-21T08:35:32;20.23;;;6.55;;
74059;SDS011;62414;53.436;8.828;2023-11-21T08:37:59;19.77;;;6.03;;
74059;SDS011;62414;53.436;8.828;2023-11-21T08:40:25;19.95;;;6.80;;
74059;SDS011;62414;53.436;8.828;2023-11-21T08:42:50;18.73;;;6.67;;
74059;SDS011;62414;53.436;8.828;2023-11-21T08:45:15;19.37;;;6.27;;
74059;SDS011;62414;53.436;8.828;2023-11-21T08:47:41;18.33;;;7.03;;
74059;SDS011;62414;53.436;8.828;2023-11-21T08:50:07;16.70;;;6.27;;
74059;SDS011;62414;53.436;8.828;2023-11-21T08:52:33;19.80;;;6.78;;
74059;SDS011;62414;53.436;8.828;2023-11-21T08:55:00;20.17;;;6.63;;
74059;SDS011;62414;53.436;8.828;2023-11-21T08:57:25;18.20;;;6.93;;
74059;SDS011;62414;53.436;8.828;2023-11-21T08:59:51;19.57;;;6.77;;
74059;SDS011;62414;53.436;8.828;2023-11-21T09:02:16;19.63;;;6.97;;
74059;SDS011;62414;53.436;8.828;2023-11-21T09:04:42;18.77;;;6.72;;
74059;SDS011;62414;53.436;8.828;2023-11-21T09:07:07;19.50;;;6.97;;
74059;SDS011;62414;53.436;8.828;2023-11-21T09:09:32;19.13;;;6.80;;
74059;SDS011;62414;53.436;8.828;2023-11-21T09:11:59;17.77;;;6.73;;
74059;SDS011;62414;53.436;8.828;2023-11-21T09:14:25;20.33;;;7.57;;
74059;SDS011;62414;53.436;8.828;2023-11-21T09:16:50;20.67;;;6.43;;
74059;SDS011;62414;53.436;8.828;2023-11-21T09:19:15;19.80;;;6.43;;
74059;SDS011;62414;53.436;8.828;2023-11-21T09:21:41;21.00;;;6.47;;
74059;SDS011;62414;53.436;8.828;2023-11-21T09:24:07;19.17;;;6.80;;
74059;SDS011;62414;53.436;8.828;2023-11-21T09:26:33;20.35;;;6.45;;
74059;SDS011;62414;53.436;8.828;2023-11-21T09:28:59;17.87;;;6.43;;
74059;SDS011;62414;53.436;8.828;2023-11-21T09:31:25;17.08;;;6.07;;
74059;SDS011;62414;53.436;8.828;2023-11-21T09:33:50;18.00;;;6.30;;
74059;SDS011;62414;53.436;8.828;2023-11-21T09:36:16;19.58;;;6.78;;
74059;SDS011;62414;53.436;8.828;2023-11-21T09:38:41;17.50;;;6.20;;
74059;SDS011;62414;53.436;8.828;2023-11-21T09:41:08;15.80;;;5.80;;
74059;SDS011;62414;53.436;8.828;2023-11-21T09:43:37;15.85;;;5.60;;
74059;SDS011;62414;53.436;8.828;2023-11-21T09:46:05;16.08;;;5.90;;
74059;SDS011;62414;53.436;8.828;2023-11-21T09:48:31;19.58;;;8.40;;
74059;SDS011;62414;53.436;8.828;2023-11-21T09:50:57;15.03;;;6.30;;
74059;SDS011;62414;53.436;8.828;2023-11-21T09:53:23;15.82;;;5.40;;
74059;SDS011;62414;53.436;8.828;2023-11-21T09:55:51;18.95;;;7.57;;
74059;SDS011;62414;53.436;8.828;2023-11-21T09:58:18;17.15;;;6.10;;
74059;SDS011;62414;53.436;8.828;2023-11-21T10:00:44;18.13;;;8.13;;
74059;SDS011;62414;53.436;8.828;2023-11-21T10:03:12;14.43;;;5.70;;
74059;SDS011;62414;53.436;8.828;2023-11-21T10:05:38;15.18;;;5.60;;
74059;SDS011;62414;53.436;8.828;2023-11-21T10:08:04;13.80;;;5.18;;
74059;SDS011;62414;53.436;8.828;2023-11-21T10:10:32;13.02;;;4.70;;
74059;SDS011;62414;53.436;8.828;2023-11-21T10:12:58;11.87;;;5.00;;
74059;SDS011;62414;53.436;8.828;2023-11-21T10:15:27;13.75;;;5.05;;
74059;SDS011;62414;53.436;8.828;2023-11-21T10:17:53;13.87;;;4.97;;
74059;SDS011;62414;53.436;8.828;2023-11-21T10:20:21;11.15;;;4.70;;
74059;SDS011;62414;53.436;8.828;2023-11-21T10:22:47;10.85;;;3.90;;
74059;SDS011;62414;53.436;8.828;2023-11-21T10:25:13;11.40;;;4.20;;
74059;SDS011;62414;53.436;8.828;2023-11-21T10:27:38;10.68;;;4.65;;
74059;SDS011;62414;53.436;8.828;2023-11-21T10:30:04;9.43;;;3.50;;
74059;SDS011;62414;53.436;8.828;2023-11-21T10:32:30;10.18;;;3.72;;
74059;SDS011;62414;53.436;8.828;2023-11-21T10:34:56;12.90;;;5.27;;
74059;SDS011;62414;53.436;8.828;2023-11-21T10:37:23;10.00;;;3.53;;
74059;SDS011;62414;53.436;8.828;2023-11-21T10:39:48;10.60;;;3.88;;
74059;SDS011;62414;53.436;8.828;2023-11-21T10:42:14;11.40;;;4.40;;
74059;SDS011;62414;53.436;8.828;2023-11-21T10:44:41;11.37;;;4.00;;
74059;SDS011;62414;53.436;8.828;2023-11-21T10:47:08;14.00;;;4.35;;
74059;SDS011;62414;53.436;8.828;2023-11-21T10:49:33;11.57;;;4.22;;
74059;SDS011;62414;53.436;8.828;2023-11-21T10:51:59;10.83;;;4.17;;
74059;SDS011;62414;53.436;8.828;2023-11-21T10:54:26;15.13;;;4.93;;
74059;SDS011;62414;53.436;8.828;2023-11-21T10:56:53;14.48;;;5.10;;
74059;SDS011;62414;53.436;8.828;2023-11-21T10:59:19;13.07;;;4.75;;
74059;SDS011;62414;53.436;8.828;2023-11-21T11:01:44;14.50;;;5.77;;
74059;SDS011;62414;53.436;8.828;2023-11-21T11:04:11;12.27;;;5.18;;
74059;SDS011;62414;53.436;8.828;2023-11-21T11:06:36;16.38;;;5.90;;
74059;SDS011;62414;53.436;8.828;2023-11-21T11:09:02;16.50;;;5.13;;
74059;SDS011;62414;53.436;8.828;2023-11-21T11:11:29;13.00;;;5.03;;
74059;SDS011;62414;53.436;8.828;2023-11-21T11:13:55;15.03;;;4.83;;
74059;SDS011;62414;53.436;8.828;2023-11-21T11:16:21;13.52;;;5.00;;
74059;SDS011;62414;53.436;8.828;2023-11-21T11:18:47;12.40;;;5.20;;
74059;SDS011;62414;53.436;8.828;2023-11-21T11:21:16;12.93;;;5.30;;
74059;SDS011;62414;53.436;8.828;2023-11-21T11:23:53;13.52;;;5.13;;
74059;SDS011;62414;53.436;8.828;2023-11-21T11:26:28;13.45;;;5.28;;
74059;SDS011;62414;53.436;8.828;2023-11-21T11:29:03;12.10;;;4.55;;
74059;SDS011;62414;53.436;8.828;2023-11-21T11:31:36;12.73;;;5.07;;
74059;SDS011;62414;53.436;8.828;2023-11-21T11:34:07;11.77;;;4.85;;
74059;SDS011;62414;53.436;8.828;2023-11-21T11:36:39;12.30;;;4.30;;
74059;SDS011;62414;53.436;8.828;2023-11-21T11:39:26;11.02;;;4.45;;
74059;SDS011;62414;53.436;8.828;2023-11-21T11:41:53;13.02;;;4.68;;
74059;SDS011;62414;53.436;8.828;2023-11-21T11:47:15;11.25;;;4.00;;
74059;SDS011;62414;53.436;8.828;2023-11-21T11:49:54;10.52;;;3.90;;
74059;SDS011;62414;53.436;8.828;2023-11-21T11:52:34;9.98;;;3.25;;
74059;SDS011;62414;53.436;8.828;2023-11-21T11:55:04;9.70;;;3.97;;
74059;SDS011;62414;53.436;8.828;2023-11-21T11:57:32;8.90;;;3.63;;
74059;SDS011;62414;53.436;8.828;2023-11-21T12:00:11;12.30;;;3.67;;
74059;SDS011;62414;53.436;8.828;2023-11-21T12:02:37;8.75;;;3.80;;
74059;SDS011;62414;53.436;8.828;2023-11-21T12:05:06;7.70;;;3.50;;
74059;SDS011;62414;53.436;8.828;2023-11-21T12:07:38;12.23;;;5.55;;
74059;SDS011;62414;53.436;8.828;2023-11-21T12:10:06;20.08;;;7.70;;
74059;SDS011;62414;53.436;8.828;2023-11-21T12:12:33;17.00;;;6.50;;
74059;SDS011;62414;53.436;8.828;2023-11-21T12:14:59;11.40;;;3.85;;
74059;SDS011;62414;53.436;8.828;2023-11-21T12:17:24;7.90;;;3.40;;
74059;SDS011;62414;53.436;8.828;2023-11-21T12:19:49;7.40;;;3.20;;
74059;SDS011;62414;53.436;8.828;2023-11-21T12:22:15;7.60;;;3.30;;
74059;SDS011;62414;53.436;8.828;2023-11-21T12:24:40;7.90;;;3.50;;
74059;SDS011;62414;53.436;8.828;2023-11-21T12:27:06;8.23;;;3.72;;
74059;SDS011;62414;53.436;8.828;2023-11-21T12:29:33;8.10;;;3.67;;
74059;SDS011;62414;53.436;8.828;2023-11-21T12:31:58;6.88;;;3.70;;
74059;SDS011;62414;53.436;8.828;2023-11-21T12:34:23;10.30;;;4.00;;
74059;SDS011;62414;53.436;8.828;2023-11-21T12:36:49;7.93;;;3.17;;
74059;SDS011;62414;53.436;8.828;2023-11-21T12:39:15;9.87;;;3.37;;
74059;SDS011;62414;53.436;8.828;2023-11-21T12:41:40;9.03;;;3.43;;
74059;SDS011;62414;53.436;8.828;2023-11-21T12:44:09;7.40;;;3.40;;
74059;SDS011;62414;53.436;8.828;2023-11-21T12:46:36;7.32;;;3.28;;
74059;SDS011;62414;53.436;8.828;2023-11-21T12:49:06;7.77;;;3.10;;
74059;SDS011;62414;53.436;8.828;2023-11-21T12:51:31;8.57;;;2.92;;
74059;SDS011;62414;53.436;8.828;2023-11-21T12:53:58;7.73;;;3.27;;
74059;SDS011;62414;53.436;8.828;2023-11-21T12:56:23;7.72;;;3.40;;
74059;SDS011;62414;53.436;8.828;2023-11-21T12:58:49;7.30;;;3.00;;
74059;SDS011;62414;53.436;8.828;2023-11-21T13:01:15;7.65;;;3.10;;
74059;SDS011;62414;53.436;8.828;2023-11-21T13:03:42;7.27;;;3.23;;
74059;SDS011;62414;53.436;8.828;2023-11-21T13:06:07;7.85;;;3.03;;
74059;SDS011;62414;53.436;8.828;2023-11-21T13:08:33;9.52;;;3.28;;
74059;SDS011;62414;53.436;8.828;2023-11-21T13:10:59;6.50;;;2.90;;
74059;SDS011;62414;53.436;8.828;2023-11-21T13:13:25;6.38;;;2.90;;
74059;SDS011;62414;53.436;8.828;2023-11-21T13:15:51;6.95;;;2.83;;
74059;SDS011;62414;53.436;8.828;2023-11-21T13:18:18;6.67;;;2.93;;
74059;SDS011;62414;53.436;8.828;2023-11-21T13:20:45;7.25;;;3.33;;
74059;SDS011;62414;53.436;8.828;2023-11-21T13:23:10;7.68;;;3.17;;
74059;SDS011;62414;53.436;8.828;2023-11-21T13:25:36;5.80;;;2.70;;
74059;SDS011;62414;53.436;8.828;2023-11-21T13:28:01;8.57;;;2.93;;
74059;SDS011;62414;53.436;8.828;2023-11-21T13:30:28;7.72;;;3.38;;
74059;SDS011;62414;53.436;8.828;2023-11-21T13:32:54;8.02;;;3.70;;
74059;SDS011;62414;53.436;8.828;2023-11-21T13:35:19;8.13;;;3.47;;
74059;SDS011;62414;53.436;8.828;2023-11-21T13:37:46;6.77;;;2.93;;
74059;SDS011;62414;53.436;8.828;2023-11-21T13:40:12;8.60;;;4.18;;
74059;SDS011;62414;53.436;8.828;2023-11-21T13:42:37;9.77;;;3.83;;
74059;SDS011;62414;53.436;8.828;2023-11-21T13:45:03;9.57;;;3.97;;
74059;SDS011;62414;53.436;8.828;2023-11-21T13:47:29;8.50;;;4.03;;
74059;SDS011;62414;53.436;8.828;2023-11-21T13:49:55;8.93;;;3.70;;
74059;SDS011;62414;53.436;8.828;2023-11-21T13:52:20;8.17;;;3.50;;
74059;SDS011;62414;53.436;8.828;2023-11-21T13:54:47;9.27;;;3.73;;
74059;SDS011;62414;53.436;8.828;2023-11-21T13:57:12;12.57;;;4.25;;
74059;SDS011;62414;53.436;8.828;2023-11-21T13:59:38;10.13;;;3.83;;
74059;SDS011;62414;53.436;8.828;2023-11-21T14:02:03;9.40;;;3.53;;
74059;SDS011;62414;53.436;8.828;2023-11-21T14:04:29;6.88;;;2.97;;
74059;SDS011;62414;53.436;8.828;2023-11-21T14:06:54;7.73;;;3.10;;
74059;SDS011;62414;53.436;8.828;2023-11-21T14:09:20;6.93;;;2.70;;
74059;SDS011;62414;53.436;8.828;2023-11-21T14:11:48;7.07;;;3.03;;
74059;SDS011;62414;53.436;8.828;2023-11-21T14:14:14;7.32;;;3.03;;
74059;SDS011;62414;53.436;8.828;2023-11-21T14:16:40;6.83;;;2.50;;
74059;SDS011;62414;53.436;8.828;2023-11-21T14:19:05;9.00;;;3.33;;
74059;SDS011;62414;53.436;8.828;2023-11-21T14:21:31;16.30;;;6.13;;
74059;SDS011;62414;53.436;8.828;2023-11-21T14:23:56;8.53;;;3.20;;
74059;SDS011;62414;53.436;8.828;2023-11-21T14:26:22;8.43;;;2.70;;
74059;SDS011;62414;53.436;8.828;2023-11-21T14:28:48;9.57;;;3.30;;